Burke Lakefront Airport
KBKL : rendu visible

Aérodrome :











RETROUVEZ-NOUS SUR...

 
LOGIN :

S'inscrire | Disclaimer

   EN    FR    IT 

 









Légende :    VFR   VFR Marginal   IFR   IFR Intensif   IFR Très Intensif
Visi : 
Plafond : 
>= 8 km
>= 3000ft
5 à 8 km
1000 à 3000 ft
1500m à 5 km
500 à 1000 ft
800 à 1500m
200 à 500 ft
< 800m
< 200 ft
Symboles :   Orages  Brouillard  Fortes neiges  Fortes précipitations  Vent > 20 kt






- Altitude de l'aérodrome : 583 ft
- Code IATA : BKL


KBKL - Burke Lakefront

DERNIER METAR :
  • 190753Z AUTO 25029G37KT 2 1/2SM -SN BKN019 OVC024 M03/M07 A2986 RMK AO2 PK WND 26040/0730 SLP117 P0000 T10331067

METARs EXPIRÉS :
  • 190736Z AUTO 26026G40KT 2 1/2SM -SN OVC017 M03/M07 A2985 RMK AO2 PK WND 26040/0730 P0000 T10281067
  • 190653Z AUTO 25025G35KT 4SM -SN OVC018 M02/M06 A2983 RMK AO2 PK WND 25036/0641 SLP106 P0000 T10221061
  • 190553Z AUTO 24023G29KT 3SM -SN BKN017 OVC024 M01/M04 A2979 RMK AO2 PK WND 24038/0502 SLP094 P0000 60000 T10111044 10039 21011 53027

TAF N/A



MET'MAP, la Météo Aéronautique d'un coup d'oeil ! - Copyright ORBIFLY Décembre 2007 - Disclaimer

ORBIFLY MET'MAP TEAM :

Programmation & Développement : Alexandra Zaïnal
Sur une idée originale de : Baudouin d'Aumeries
Assistance à la programmation : Marc-Olivier Méhu
Soutien technique & logistique : Manuel Goepfert

Contact : metmap@orbifly.com




SOURCES & CREDITS :

   NOAA       Earth
Advisory